Time;durP1;ratioP1;P1;durP2;ratioP2;P2;SDS_P1;SDS_P2;PMS_P1;PMS_P2;Temp;Humidity;BMP_temperature;BMP_pressure;BME280_temperature;BME280_humidity;BME280_pressure;Samples;Min_cycle;Max_cycle;Signal;HPM_P1;HPM_P2
2022/07/25 00:02:23;;;;;;;19.35;11.65;;;;;;;;;;10537940;28;20024;-74
2022/07/25 00:07:23;;;;;;;18.23;12.40;;;;;;;;;;10537922;28;20458;-74
2022/07/25 00:12:23;;;;;;;17.45;12.70;;;;;;;;;;10537560;28;20612;-74
2022/07/25 00:17:23;;;;;;;18.73;12.30;;;;;;;;;;10537313;28;20474;-74
2022/07/25 00:22:24;;;;;;;17.30;11.75;;;;;;;;;;10537086;28;20032;-75
2022/07/25 00:27:24;;;;;;;17.58;12.52;;;;;;;;;;10537004;28;20016;-74
2022/07/25 00:32:24;;;;;;;17.92;13.10;;;;;;;;;;10538224;28;20032;-75
2022/07/25 00:37:24;;;;;;;18.80;12.38;;;;;;;;;;10536828;28;20022;-75
2022/07/25 00:42:25;;;;;;;16.13;11.68;;;;;;;;;;10537559;28;20052;-74
2022/07/25 00:47:25;;;;;;;16.43;12.10;;;;;;;;;;10537786;28;20482;-75
2022/07/25 00:52:25;;;;;;;16.30;11.73;;;;;;;;;;10535823;28;20051;-74
2022/07/25 00:57:26;;;;;;;16.67;12.75;;;;;;;;;;10536518;28;20374;-74
2022/07/25 01:02:26;;;;;;;15.35;11.95;;;;;;;;;;10535760;28;20020;-74
2022/07/25 01:07:26;;;;;;;16.50;11.77;;;;;;;;;;10535840;28;20018;-75
2022/07/25 01:12:27;;;;;;;18.33;13.05;;;;;;;;;;10535439;28;20042;-75
2022/07/25 01:17:27;;;;;;;16.33;11.47;;;;;;;;;;10536670;28;20023;-74
2022/07/25 01:22:27;;;;;;;16.27;11.60;;;;;;;;;;10536563;28;20366;-74
2022/07/25 01:27:27;;;;;;;15.80;10.95;;;;;;;;;;10534993;28;20020;-74
2022/07/25 01:32:28;;;;;;;16.73;11.93;;;;;;;;;;10536832;28;20529;-74
2022/07/25 01:37:28;;;;;;;20.00;12.60;;;;;;;;;;10534746;28;20547;-75
2022/07/25 01:42:28;;;;;;;16.83;11.73;;;;;;;;;;10534902;28;20044;-74
2022/07/25 01:47:28;;;;;;;15.90;11.65;;;;;;;;;;10534541;28;20027;-74
2022/07/25 01:52:29;;;;;;;19.75;12.05;;;;;;;;;;10534707;28;20111;-75
2022/07/25 01:57:29;;;;;;;17.38;11.55;;;;;;;;;;10535761;28;20404;-74
2022/07/25 02:02:29;;;;;;;15.48;11.70;;;;;;;;;;10535529;28;20075;-76
2022/07/25 02:07:29;;;;;;;13.85;10.88;;;;;;;;;;10541049;28;20530;-74
2022/07/25 02:12:30;;;;;;;15.30;11.63;;;;;;;;;;10542554;28;20501;-74
2022/07/25 02:17:30;;;;;;;16.77;12.15;;;;;;;;;;10542247;28;20546;-74
2022/07/25 02:22:31;;;;;;;19.80;13.55;;;;;;;;;;10542283;28;20045;-74
2022/07/25 02:27:31;;;;;;;18.00;12.93;;;;;;;;;;10541958;28;20016;-74
2022/07/25 02:32:31;;;;;;;20.30;13.30;;;;;;;;;;10541687;28;20070;-74
2022/07/25 02:37:32;;;;;;;18.95;12.90;;;;;;;;;;10541468;28;20028;-75
2022/07/25 02:42:32;;;;;;;19.88;12.07;;;;;;;;;;10542292;28;20139;-74
2022/07/25 02:47:32;;;;;;;20.58;13.02;;;;;;;;;;10524505;28;20485;-74
2022/07/25 02:52:32;;;;;;;18.77;13.30;;;;;;;;;;10542306;28;20482;-74
2022/07/25 02:57:33;;;;;;;19.42;12.30;;;;;;;;;;10540968;28;20023;-74
2022/07/25 03:02:33;;;;;;;17.97;12.70;;;;;;;;;;10540570;28;20390;-74
2022/07/25 03:07:34;;;;;;;19.47;13.57;;;;;;;;;;10541759;28;20498;-75
2022/07/25 03:12:34;;;;;;;19.88;13.43;;;;;;;;;;10541680;28;20285;-74
2022/07/25 03:17:35;;;;;;;18.00;13.30;;;;;;;;;;10539473;28;20022;-74
2022/07/25 03:22:35;;;;;;;18.60;12.48;;;;;;;;;;10539754;28;20164;-74
2022/07/25 03:27:35;;;;;;;17.37;13.00;;;;;;;;;;10539819;28;20016;-74
2022/07/25 03:32:35;;;;;;;18.33;13.48;;;;;;;;;;10541305;28;20024;-74
2022/07/25 03:37:36;;;;;;;21.00;13.05;;;;;;;;;;10539200;28;20032;-74
2022/07/25 03:42:36;;;;;;;18.33;12.57;;;;;;;;;;10546659;28;20048;-74
2022/07/25 03:47:36;;;;;;;19.58;12.48;;;;;;;;;;10582273;28;20030;-74
2022/07/25 03:52:37;;;;;;;18.40;12.53;;;;;;;;;;10582135;28;20077;-74
2022/07/25 03:57:37;;;;;;;16.77;11.70;;;;;;;;;;10563409;28;20043;-74
2022/07/25 04:02:38;;;;;;;18.77;9.93;;;;;;;;;;10563225;28;20497;-74
2022/07/25 04:07:38;;;;;;;16.80;10.55;;;;;;;;;;10563096;28;20401;-74
2022/07/25 04:12:38;;;;;;;13.35;9.35;;;;;;;;;;10562817;28;20031;-74
2022/07/25 04:17:39;;;;;;;11.47;8.77;;;;;;;;;;10562700;28;20477;-74
2022/07/25 04:22:39;;;;;;;17.05;9.30;;;;;;;;;;10580715;28;20023;-74
2022/07/25 04:27:39;;;;;;;15.38;8.13;;;;;;;;;;10561118;28;20015;-75
2022/07/25 04:32:39;;;;;;;12.17;7.67;;;;;;;;;;10562060;28;20026;-74
2022/07/25 04:37:40;;;;;;;15.60;8.38;;;;;;;;;;10561239;28;20030;-74
2022/07/25 04:42:40;;;;;;;12.52;7.97;;;;;;;;;;10560881;28;20055;-76
2022/07/25 04:47:40;;;;;;;10.07;7.60;;;;;;;;;;10561175;28;20019;-76
2022/07/25 04:52:41;;;;;;;11.43;7.40;;;;;;;;;;10561138;28;20108;-76
2022/07/25 04:57:41;;;;;;;10.05;6.30;;;;;;;;;;10561295;28;20035;-74
2022/07/25 05:02:41;;;;;;;8.38;6.38;;;;;;;;;;10560397;28;20107;-74
2022/07/25 05:07:42;;;;;;;10.23;6.47;;;;;;;;;;10578616;28;20022;-75
2022/07/25 05:12:42;;;;;;;16.03;6.03;;;;;;;;;;10602614;27;20768;-75
2022/07/25 05:17:42;;;;;;;11.60;7.00;;;;;;;;;;10602424;27;20110;-75
2022/07/25 05:22:42;;;;;;;9.85;6.50;;;;;;;;;;10602258;27;20026;-74
2022/07/25 05:27:43;;;;;;;15.17;7.93;;;;;;;;;;10602026;27;20094;-75
2022/07/25 05:32:43;;;;;;;10.18;6.70;;;;;;;;;;10601968;27;20023;-74
2022/07/25 05:37:43;;;;;;;11.50;5.80;;;;;;;;;;10601732;27;20019;-74
2022/07/25 05:42:44;;;;;;;6.75;5.25;;;;;;;;;;10619859;27;20059;-74
2022/07/25 05:47:44;;;;;;;11.13;5.18;;;;;;;;;;10601648;28;20163;-75
2022/07/25 05:52:44;;;;;;;13.60;6.32;;;;;;;;;;10601817;28;20023;-75
2022/07/25 05:57:44;;;;;;;10.82;5.85;;;;;;;;;;10601479;28;20416;-75
2022/07/25 06:02:45;;;;;;;10.43;5.85;;;;;;;;;;10601632;28;20431;-75
2022/07/25 06:07:45;;;;;;;8.47;5.60;;;;;;;;;;10601562;28;20019;-76
2022/07/25 06:12:45;;;;;;;8.40;5.80;;;;;;;;;;10601413;28;20011;-75
2022/07/25 06:17:46;;;;;;;12.50;5.55;;;;;;;;;;10601202;28;20055;-75
2022/07/25 06:22:46;;;;;;;7.38;6.15;;;;;;;;;;10600987;28;20016;-74
2022/07/25 06:27:46;;;;;;;10.17;5.40;;;;;;;;;;10601165;28;20502;-75
2022/07/25 06:32:47;;;;;;;12.68;4.70;;;;;;;;;;10619362;28;20019;-75
2022/07/25 06:37:47;;;;;;;7.00;4.88;;;;;;;;;;10600856;28;20103;-75
2022/07/25 06:42:47;;;;;;;6.47;4.95;;;;;;;;;;10619071;28;20047;-75
2022/07/25 06:47:48;;;;;;;8.60;5.00;;;;;;;;;;10619250;28;20114;-75
2022/07/25 06:52:48;;;;;;;9.90;5.45;;;;;;;;;;10624216;27;20034;-73
2022/07/25 06:57:48;;;;;;;9.37;5.37;;;;;;;;;;10607671;27;20019;-74
2022/07/25 07:02:50;;;;;;;9.85;4.90;;;;;;;;;;10607916;27;20019;-73
2022/07/25 07:07:51;;;;;;;14.20;5.53;;;;;;;;;;10590675;27;20480;-74
2022/07/25 07:13:01;;;;;;;11.07;5.57;;;;;;;;;;10607581;27;20019;-73
2022/07/25 07:18:01;;;;;;;11.52;4.90;;;;;;;;;;10607654;27;20269;-74
2022/07/25 07:23:01;;;;;;;6.65;4.20;;;;;;;;;;10607268;27;20011;-75
2022/07/25 07:28:02;;;;;;;10.40;5.18;;;;;;;;;;10603707;27;20512;-74
2022/07/25 07:33:02;;;;;;;7.93;5.40;;;;;;;;;;10621759;27;20421;-74
2022/07/25 07:38:03;;;;;;;7.30;4.95;;;;;;;;;;10603177;27;20027;-74
2022/07/25 07:43:03;;;;;;;9.43;5.57;;;;;;;;;;10604026;27;20107;-74
2022/07/25 07:48:05;;;;;;;5.40;4.10;;;;;;;;;;10606213;27;20106;-74
2022/07/25 07:53:06;;;;;;;6.53;4.65;;;;;;;;;;10624301;27;20086;-73
2022/07/25 07:58:06;;;;;;;8.00;4.47;;;;;;;;;;10605939;27;20015;-73
2022/07/25 08:03:09;;;;;;;5.28;3.83;;;;;;;;;;10623944;27;20475;-73
2022/07/25 08:08:11;;;;;;;6.22;4.40;;;;;;;;;;10624352;27;20015;-74
2022/07/25 08:13:14;;;;;;;10.80;4.25;;;;;;;;;;10605227;27;20020;-74
2022/07/25 08:18:14;;;;;;;5.35;4.22;;;;;;;;;;10623849;27;20023;-74
2022/07/25 08:23:15;;;;;;;4.87;3.87;;;;;;;;;;10604434;27;20015;-74
2022/07/25 08:28:15;;;;;;;8.50;3.90;;;;;;;;;;10604267;27;20769;-75
2022/07/25 08:33:16;;;;;;;5.68;3.85;;;;;;;;;;10587345;27;20012;-74
2022/07/25 08:38:17;;;;;;;10.32;5.10;;;;;;;;;;10604074;27;20019;-74
2022/07/25 08:43:17;;;;;;;6.15;4.20;;;;;;;;;;10603610;27;20535;-74
2022/07/25 08:48:22;;;;;;;13.13;7.63;;;;;;;;;;10603647;27;20537;-74
2022/07/25 08:53:22;;;;;;;12.13;4.33;;;;;;;;;;10603609;27;20019;-74
2022/07/25 08:58:23;;;;;;;6.18;3.63;;;;;;;;;;10603380;27;20015;-74
2022/07/25 09:03:25;;;;;;;8.15;4.70;;;;;;;;;;10603512;27;20031;-74
2022/07/25 09:08:25;;;;;;;6.45;3.92;;;;;;;;;;10621512;27;20019;-74
2022/07/25 09:13:25;;;;;;;5.38;3.78;;;;;;;;;;10602174;27;20015;-74
2022/07/25 09:18:26;;;;;;;5.75;3.75;;;;;;;;;;10602555;27;20022;-73
2022/07/25 09:23:28;;;;;;;10.00;4.60;;;;;;;;;;10602355;27;20050;-74
2022/07/25 09:28:28;;;;;;;6.90;3.67;;;;;;;;;;10602190;27;20046;-74
2022/07/25 09:33:29;;;;;;;7.97;3.90;;;;;;;;;;10602125;27;20023;-75
2022/07/25 09:38:29;;;;;;;6.75;4.03;;;;;;;;;;10602001;27;20019;-73
2022/07/25 09:43:39;;;;;;;7.82;4.55;;;;;;;;;;10601502;27;20050;-73
2022/07/25 09:48:43;;;;;;;7.38;4.13;;;;;;;;;;10620250;28;20019;-74
2022/07/25 09:53:43;;;;;;;5.47;3.55;;;;;;;;;;10601776;28;20023;-75
2022/07/25 09:58:43;;;;;;;5.47;4.25;;;;;;;;;;10601536;28;20477;-73
2022/07/25 10:03:49;;;;;;;8.70;4.90;;;;;;;;;;10601699;28;20404;-74
2022/07/25 10:08:49;;;;;;;10.57;4.03;;;;;;;;;;10601637;28;20043;-75
2022/07/25 10:13:50;;;;;;;6.95;4.28;;;;;;;;;;10619765;28;20047;-74
2022/07/25 10:18:52;;;;;;;8.75;4.22;;;;;;;;;;10601397;28;20499;-74
2022/07/25 10:23:59;;;;;;;6.57;3.67;;;;;;;;;;10601155;27;20484;-73
2022/07/25 10:29:00;;;;;;;7.95;3.83;;;;;;;;;;10608099;27;20087;-73
2022/07/25 10:34:01;;;;;;;6.50;3.08;;;;;;;;;;10608823;27;20023;-73
2022/07/25 10:39:01;;;;;;;6.85;2.95;;;;;;;;;;10608888;27;20015;-73
2022/07/25 10:44:01;;;;;;;4.47;3.70;;;;;;;;;;10608277;27;20047;-73
2022/07/25 10:49:03;;;;;;;7.10;3.93;;;;;;;;;;10608074;27;20071;-73
2022/07/25 10:54:16;;;;;;;6.70;4.05;;;;;;;;;;10607980;27;20511;-73
2022/07/25 10:59:24;;;;;;;3.35;2.78;;;;;;;;;;10607669;27;20015;-73
2022/07/25 11:04:24;;;;;;;6.22;3.53;;;;;;;;;;10626146;27;20023;-72
2022/07/25 11:09:26;;;;;;;3.70;2.73;;;;;;;;;;10607304;27;20020;-73
2022/07/25 11:14:38;;;;;;;5.03;3.72;;;;;;;;;;10607181;27;20054;-75
2022/07/25 11:19:39;;;;;;;7.45;3.30;;;;;;;;;;10607331;27;20019;-73
2022/07/25 11:24:40;;;;;;;4.95;3.95;;;;;;;;;;10606898;27;20032;-75
2022/07/25 11:29:41;;;;;;;4.82;3.88;;;;;;;;;;10606579;27;20473;-73
2022/07/25 11:34:43;;;;;;;5.43;3.65;;;;;;;;;;10606635;27;20072;-73
2022/07/25 11:39:44;;;;;;;6.75;4.25;;;;;;;;;;10605892;27;20058;-73
2022/07/25 11:44:49;;;;;;;6.35;4.38;;;;;;;;;;10606111;27;20051;-73
2022/07/25 11:49:50;;;;;;;5.18;4.13;;;;;;;;;;10624394;27;20019;-73
2022/07/25 11:54:51;;;;;;;5.82;4.32;;;;;;;;;;10624290;27;20141;-72
2022/07/25 11:59:53;;;;;;;7.80;4.40;;;;;;;;;;10605523;27;20080;-73
2022/07/25 12:04:57;;;;;;;7.78;4.18;;;;;;;;;;10605088;27;20015;-74
2022/07/25 12:09:57;;;;;;;12.55;5.05;;;;;;;;;;10605190;27;20015;-74
2022/07/25 12:14:57;;;;;;;4.70;3.97;;;;;;;;;;10587777;27;20023;-73
2022/07/25 12:19:58;;;;;;;7.32;4.07;;;;;;;;;;10605113;27;20119;-73
2022/07/25 12:24:58;;;;;;;5.55;4.38;;;;;;;;;;10622951;27;20102;-73
2022/07/25 12:29:58;;;;;;;5.40;4.57;;;;;;;;;;10604910;27;20092;-73
2022/07/25 12:34:58;;;;;;;5.03;4.40;;;;;;;;;;10603948;27;20412;-73
2022/07/25 12:40:00;;;;;;;6.40;4.60;;;;;;;;;;10603836;27;20019;-72
2022/07/25 12:45:00;;;;;;;6.65;4.50;;;;;;;;;;10603212;27;20047;-72
2022/07/25 12:50:00;;;;;;;5.35;4.40;;;;;;;;;;10602626;27;20011;-72
2022/07/25 12:55:00;;;;;;;7.23;4.83;;;;;;;;;;10603228;27;20049;-73
2022/07/25 13:00:01;;;;;;;4.93;4.43;;;;;;;;;;10603066;27;20072;-75
2022/07/25 13:05:02;;;;;;;8.32;5.70;;;;;;;;;;10602964;27;20025;-75
2022/07/25 13:10:03;;;;;;;6.00;3.83;;;;;;;;;;10602639;27;20100;-73
2022/07/25 13:15:03;;;;;;;4.15;3.75;;;;;;;;;;10602330;27;20703;-73
2022/07/25 13:20:04;;;;;;;9.25;3.80;;;;;;;;;;10602869;27;20030;-73
2022/07/25 13:25:05;;;;;;;5.50;4.55;;;;;;;;;;10601835;27;20118;-73
2022/07/25 13:30:06;;;;;;;9.95;4.97;;;;;;;;;;10602325;27;20033;-73
2022/07/25 13:35:06;;;;;;;10.60;4.68;;;;;;;;;;10619959;27;20502;-73
2022/07/25 13:40:07;;;;;;;10.63;5.00;;;;;;;;;;10620465;27;20025;-73
2022/07/25 13:45:08;;;;;;;8.50;4.70;;;;;;;;;;10601417;27;20516;-73
2022/07/25 13:50:09;;;;;;;7.07;3.80;;;;;;;;;;10601202;28;20106;-73
2022/07/25 13:55:10;;;;;;;5.88;4.22;;;;;;;;;;10601265;28;20034;-73
2022/07/25 14:00:10;;;;;;;7.95;5.40;;;;;;;;;;10604029;27;20188;-73
2022/07/25 14:05:11;;;;;;;6.03;4.03;;;;;;;;;;10610053;27;20027;-73
2022/07/25 14:10:12;;;;;;;7.93;4.38;;;;;;;;;;10609846;27;20019;-72
2022/07/25 14:15:12;;;;;;;5.07;4.10;;;;;;;;;;10609240;27;20119;-72
2022/07/25 14:20:12;;;;;;;9.63;4.97;;;;;;;;;;10627760;27;20023;-73
2022/07/25 14:25:12;;;;;;;9.13;4.70;;;;;;;;;;10627415;27;20051;-74
2022/07/25 14:30:13;;;;;;;6.53;4.32;;;;;;;;;;10608942;27;20054;-74
2022/07/25 14:35:13;;;;;;;10.03;4.77;;;;;;;;;;10608353;27;20487;-74
2022/07/25 14:40:13;;;;;;;9.10;5.03;;;;;;;;;;10626504;27;20544;-74
2022/07/25 14:45:15;;;;;;;5.97;5.10;;;;;;;;;;10607941;27;20055;-75
2022/07/25 14:50:15;;;;;;;14.77;5.43;;;;;;;;;;10608113;27;20015;-75
2022/07/25 14:55:15;;;;;;;8.32;5.47;;;;;;;;;;10607521;27;20023;-75
2022/07/25 15:00:16;;;;;;;5.90;5.30;;;;;;;;;;10607969;27;20043;-75
2022/07/25 15:05:16;;;;;;;7.57;5.50;;;;;;;;;;10626261;27;20026;-75
2022/07/25 15:10:16;;;;;;;12.03;5.97;;;;;;;;;;10625507;27;20036;-75
2022/07/25 15:15:17;;;;;;;8.20;6.00;;;;;;;;;;10606910;27;20023;-72
2022/07/25 15:20:17;;;;;;;7.72;5.40;;;;;;;;;;10625579;27;20139;-75
2022/07/25 15:25:17;;;;;;;7.13;5.60;;;;;;;;;;10606561;27;20541;-74
2022/07/25 15:30:17;;;;;;;8.63;6.13;;;;;;;;;;10607178;27;20023;-73
2022/07/25 15:35:18;;;;;;;8.40;5.70;;;;;;;;;;10606196;27;20404;-74
2022/07/25 15:40:18;;;;;;;7.23;6.10;;;;;;;;;;10605927;27;20128;-73
2022/07/25 15:45:22;;;;;;;11.73;6.15;;;;;;;;;;10624271;27;20051;-74
2022/07/25 15:50:22;;;;;;;8.10;6.07;;;;;;;;;;10605850;27;20050;-73
2022/07/25 15:55:22;;;;;;;7.43;6.10;;;;;;;;;;10623841;27;20077;-73
2022/07/25 16:00:23;;;;;;;10.57;6.13;;;;;;;;;;10605299;27;20023;-72
2022/07/25 16:05:23;;;;;;;7.70;5.80;;;;;;;;;;10605162;27;20023;-74
2022/07/25 16:10:23;;;;;;;7.95;6.10;;;;;;;;;;10605011;27;20608;-73
2022/07/25 16:15:24;;;;;;;8.50;6.00;;;;;;;;;;10623422;27;20034;-75
2022/07/25 16:20:24;;;;;;;9.13;6.10;;;;;;;;;;10604521;27;20023;-73
2022/07/25 16:25:26;;;;;;;11.63;6.18;;;;;;;;;;10602963;27;20068;-73
2022/07/25 16:30:26;;;;;;;12.63;7.20;;;;;;;;;;10622445;27;20027;-73
2022/07/25 16:35:27;;;;;;;10.13;7.10;;;;;;;;;;10622127;27;20124;-73
2022/07/25 16:40:27;;;;;;;9.95;6.00;;;;;;;;;;10603761;27;20033;-73
2022/07/25 16:45:27;;;;;;;13.27;7.20;;;;;;;;;;10603484;27;20055;-72
2022/07/25 16:50:27;;;;;;;9.53;6.00;;;;;;;;;;10622004;27;20019;-73
2022/07/25 16:55:28;;;;;;;15.48;8.10;;;;;;;;;;10621819;27;20091;-74
2022/07/25 17:00:28;;;;;;;9.80;6.65;;;;;;;;;;10603279;27;20503;-73
2022/07/25 17:05:29;;;;;;;13.90;7.97;;;;;;;;;;10621614;27;20027;-73
2022/07/25 17:10:29;;;;;;;9.82;7.32;;;;;;;;;;10603082;27;20031;-73
2022/07/25 17:15:29;;;;;;;11.13;7.95;;;;;;;;;;10602481;27;20545;-73
2022/07/25 17:20:29;;;;;;;11.20;7.40;;;;;;;;;;10602144;27;20057;-74
2022/07/25 17:25:30;;;;;;;19.37;8.30;;;;;;;;;;10620566;27;20027;-73
2022/07/25 17:30:30;;;;;;;17.38;8.00;;;;;;;;;;10620384;27;20449;-73
2022/07/25 17:35:31;;;;;;;13.07;8.73;;;;;;;;;;10601349;27;20026;-74
2022/07/25 17:40:31;;;;;;;13.10;7.90;;;;;;;;;;10602518;27;20058;-73
2022/07/25 17:45:31;;;;;;;17.60;8.93;;;;;;;;;;10576156;28;20054;-73
2022/07/25 17:50:33;;;;;;;12.18;7.50;;;;;;;;;;10576242;28;20051;-73
2022/07/25 17:55:33;;;;;;;11.30;7.47;;;;;;;;;;10577458;28;20076;-74
2022/07/25 18:00:33;;;;;;;13.67;7.40;;;;;;;;;;10575925;28;20192;-75
2022/07/25 18:05:34;;;;;;;11.30;7.22;;;;;;;;;;10575671;28;20483;-74
2022/07/25 18:10:34;;;;;;;12.27;9.03;;;;;;;;;;10577287;28;20027;-73
2022/07/25 18:15:34;;;;;;;18.40;8.33;;;;;;;;;;10575617;28;20405;-74
2022/07/25 18:20:35;;;;;;;11.23;8.53;;;;;;;;;;10575708;28;20401;-75
2022/07/25 18:25:36;;;;;;;10.43;8.38;;;;;;;;;;10575681;28;20386;-74
2022/07/25 18:30:36;;;;;;;11.53;8.00;;;;;;;;;;10575669;28;20082;-74
2022/07/25 18:35:36;;;;;;;13.93;8.60;;;;;;;;;;10575100;28;20033;-74
2022/07/25 18:40:37;;;;;;;11.60;9.43;;;;;;;;;;10575351;28;20097;-74
2022/07/25 18:45:37;;;;;;;17.95;9.32;;;;;;;;;;10575141;28;20493;-75
2022/07/25 18:50:37;;;;;;;16.40;8.70;;;;;;;;;;10583021;28;20019;-74
2022/07/25 18:55:38;;;;;;;23.50;7.90;;;;;;;;;;10582863;28;20020;-74
2022/07/25 19:00:38;;;;;;;16.55;8.88;;;;;;;;;;10582505;28;20027;-74
2022/07/25 19:05:38;;;;;;;21.48;9.88;;;;;;;;;;10583692;28;20023;-73
2022/07/25 19:10:39;;;;;;;17.65;10.10;;;;;;;;;;10582205;28;20016;-75
2022/07/25 19:15:40;;;;;;;19.10;11.38;;;;;;;;;;10581988;28;20020;-74
2022/07/25 19:20:40;;;;;;;16.98;9.82;;;;;;;;;;10581757;28;20020;-74
2022/07/25 19:25:41;;;;;;;12.10;9.30;;;;;;;;;;10581660;28;20027;-74
2022/07/25 19:30:42;;;;;;;17.08;9.75;;;;;;;;;;10581695;28;20254;-74
2022/07/25 19:35:43;;;;;;;14.23;10.07;;;;;;;;;;10581337;28;20011;-74
2022/07/25 19:40:43;;;;;;;21.35;10.07;;;;;;;;;;10582396;28;20106;-74
2022/07/25 19:45:43;;;;;;;17.52;9.43;;;;;;;;;;10580505;28;20039;-74
2022/07/25 19:50:44;;;;;;;17.70;10.05;;;;;;;;;;10581989;28;20067;-74
2022/07/25 19:55:44;;;;;;;15.55;9.52;;;;;;;;;;10580479;28;20030;-74
2022/07/25 20:00:45;;;;;;;13.87;9.37;;;;;;;;;;10580115;28;20405;-74
2022/07/25 20:05:45;;;;;;;13.85;9.60;;;;;;;;;;10563291;28;20039;-74
2022/07/25 20:10:47;;;;;;;15.38;9.57;;;;;;;;;;10580144;28;20413;-74
2022/07/25 20:15:47;;;;;;;17.30;9.73;;;;;;;;;;10580296;28;20026;-75
2022/07/25 20:20:47;;;;;;;13.27;9.23;;;;;;;;;;10580196;28;20518;-73
2022/07/25 20:25:47;;;;;;;14.63;9.65;;;;;;;;;;10579440;28;20042;-73
2022/07/25 20:30:48;;;;;;;12.88;8.52;;;;;;;;;;10579417;28;20020;-73
2022/07/25 20:35:48;;;;;;;14.60;8.60;;;;;;;;;;10578981;28;20020;-74
2022/07/25 20:40:49;;;;;;;16.20;9.80;;;;;;;;;;10578957;28;20023;-74
2022/07/25 20:45:49;;;;;;;14.50;10.15;;;;;;;;;;10578584;28;20422;-75
2022/07/25 20:50:49;;;;;;;16.90;10.40;;;;;;;;;;10578502;28;20548;-73
2022/07/25 20:55:50;;;;;;;12.85;8.77;;;;;;;;;;10578534;28;20024;-73
2022/07/25 21:00:50;;;;;;;16.10;9.50;;;;;;;;;;10582135;27;20077;-74
2022/07/25 21:05:50;;;;;;;15.48;10.45;;;;;;;;;;10578418;28;20455;-73
2022/07/25 21:10:51;;;;;;;14.10;9.23;;;;;;;;;;10578695;28;20020;-74
2022/07/25 21:15:51;;;;;;;15.95;10.02;;;;;;;;;;10577840;28;20503;-73
2022/07/25 21:20:52;;;;;;;18.25;10.50;;;;;;;;;;10577569;28;20027;-73
2022/07/25 21:25:52;;;;;;;10.90;8.00;;;;;;;;;;10577222;28;20031;-73
2022/07/25 21:30:52;;;;;;;12.80;9.00;;;;;;;;;;10560377;28;20550;-73
2022/07/25 21:35:53;;;;;;;13.57;9.45;;;;;;;;;;10576911;28;20500;-73
2022/07/25 21:40:53;;;;;;;13.57;9.43;;;;;;;;;;10577124;28;20481;-74
2022/07/25 21:45:53;;;;;;;12.55;9.05;;;;;;;;;;10559894;28;20108;-74
2022/07/25 21:50:54;;;;;;;18.95;9.70;;;;;;;;;;10576694;28;20047;-75
2022/07/25 21:55:54;;;;;;;14.00;8.60;;;;;;;;;;10576639;28;20073;-73
2022/07/25 22:00:54;;;;;;;13.98;9.02;;;;;;;;;;10576563;28;20123;-74
2022/07/25 22:05:54;;;;;;;14.50;8.98;;;;;;;;;;10576404;28;20024;-73
2022/07/25 22:10:56;;;;;;;11.98;8.90;;;;;;;;;;10559504;28;20452;-73
2022/07/25 22:15:56;;;;;;;11.73;8.85;;;;;;;;;;10576479;28;20026;-73
2022/07/25 22:20:57;;;;;;;13.70;9.23;;;;;;;;;;10579896;28;20504;-73
2022/07/25 22:25:57;;;;;;;11.00;8.80;;;;;;;;;;10584546;28;20441;-73
2022/07/25 22:30:57;;;;;;;18.63;10.05;;;;;;;;;;10584373;28;20026;-74
2022/07/25 22:35:57;;;;;;;13.30;10.32;;;;;;;;;;10584004;28;20082;-73
2022/07/25 22:40:58;;;;;;;17.20;10.52;;;;;;;;;;10583908;28;20062;-73
2022/07/25 22:45:58;;;;;;;13.18;9.48;;;;;;;;;;10620551;27;20092;-73
2022/07/25 22:50:58;;;;;;;13.93;9.68;;;;;;;;;;10609003;27;20118;-73
2022/07/25 22:55:58;;;;;;;15.32;9.75;;;;;;;;;;10608751;27;20020;-75
2022/07/25 23:00:59;;;;;;;13.23;9.70;;;;;;;;;;10609163;27;20107;-74
2022/07/25 23:05:59;;;;;;;16.58;10.55;;;;;;;;;;10608248;27;20088;-73
2022/07/25 23:10:59;;;;;;;12.02;9.57;;;;;;;;;;10608218;27;20028;-73
2022/07/25 23:16:00;;;;;;;13.50;9.98;;;;;;;;;;10608111;27;20034;-74
2022/07/25 23:21:00;;;;;;;14.15;9.20;;;;;;;;;;10626385;27;20065;-74
2022/07/25 23:26:00;;;;;;;12.68;8.77;;;;;;;;;;10607435;27;20034;-73
2022/07/25 23:31:01;;;;;;;17.63;10.60;;;;;;;;;;10608090;27;20027;-73
2022/07/25 23:36:01;;;;;;;15.73;10.77;;;;;;;;;;10606276;27;20023;-73
2022/07/25 23:41:01;;;;;;;15.13;10.90;;;;;;;;;;10606848;27;20087;-73
2022/07/25 23:46:02;;;;;;;17.98;11.02;;;;;;;;;;10606173;27;20039;-73
2022/07/25 23:51:02;;;;;;;17.48;11.38;;;;;;;;;;10606363;27;20030;-75
2022/07/25 23:56:02;;;;;;;19.37;12.00;;;;;;;;;;10606384;27;20023;-73
